Hlavní strana
METAR-TAF:

METAR-TAF

Letiště :

Letiště Gran Canaria

Gran Canaria, Španělsko

zeměpisná šířka: 27-56N, zeměpisná délka: 015-23W, výška: 23 m

Aktuální stav počasí

Zpráva byla vytvořena před 22 minutami, v 00:00 UTC
Severní vítr 20 kt
Teplota 22°C
Vlhkost vzduchu 73%
Tlak 1017 hPa
Viditelnost 10 km a více
Skoro jasno ve výšce 2000 ft

METAR: GCLP 190000Z 01020KT 9999 FEW020 22/17 Q1017 NOSIG

Čas: 01:22 (00:22 UTC)

Předpověď počasí

Zpráva byla vytvořena před 4 hodinami a 22 minutami, v 20:00 UTC
Předpověď platná od 18 v 21 UTC do 19 v 21 UTC
Severní vítr 20 kt
Viditelnost 10 km a více
Polojasno ve výšce 2500 ft
Pravděpodobnost 40% :
Dočasný
od 18 v 21 UTC do 19 v 07 UTC
Severní vítr 20 kt s nárazy do 30 kt

TAF: GCLP 182000Z 1821/1921 36020KT 9999 SCT025 TX27/1914Z TN21/1905Z PROB40 TEMPO 1821/1907 36020G30KT

Stav a předpovědi počasí z více než 4 000 letišť (zprávy METAR a TAF).

Červené a žluté tečky na mapě představují dostupné meteorologické stanice.

Když kurzor umístíte na tečku, zobrazí se název stanice.

Pak kliknutím zobrazíte stav a předpověď počasí.

Chcete-li změnit mapu, kliknutím na zelené tlačítko se znaménkem +mapu přiblížíte, kliknutím na zelené tlačítko se znaménkem – mapu oddálíte a kliknutím na zelené šipky přejdete na sousední mapy.


METAR-TAF: